sensor_id;sensor_type;location;lat;lon;timestamp;temperature;humidity
38684;DHT22;24910;53.248;-6.134;2023-06-22T00:01:41;20.40;76.10
38684;DHT22;24910;53.248;-6.134;2023-06-22T00:04:12;20.30;76.10
38684;DHT22;24910;53.248;-6.134;2023-06-22T00:06:41;20.30;75.90
38684;DHT22;24910;53.248;-6.134;2023-06-22T00:09:10;20.30;75.80
38684;DHT22;24910;53.248;-6.134;2023-06-22T00:11:39;20.20;75.50
38684;DHT22;24910;53.248;-6.134;2023-06-22T00:14:08;20.20;75.30
38684;DHT22;24910;53.248;-6.134;2023-06-22T00:16:37;20.10;74.80
38684;DHT22;24910;53.248;-6.134;2023-06-22T00:19:07;20.10;74.80
38684;DHT22;24910;53.248;-6.134;2023-06-22T00:21:40;20.10;74.80
38684;DHT22;24910;53.248;-6.134;2023-06-22T00:24:10;20.10;74.80
38684;DHT22;24910;53.248;-6.134;2023-06-22T00:26:39;20.10;74.60
38684;DHT22;24910;53.248;-6.134;2023-06-22T00:29:10;20.00;74.50
38684;DHT22;24910;53.248;-6.134;2023-06-22T00:31:39;20.10;74.40
38684;DHT22;24910;53.248;-6.134;2023-06-22T00:34:08;20.00;74.30
38684;DHT22;24910;53.248;-6.134;2023-06-22T00:36:37;20.00;74.20
38684;DHT22;24910;53.248;-6.134;2023-06-22T00:39:09;20.00;74.10
38684;DHT22;24910;53.248;-6.134;2023-06-22T00:41:39;20.00;74.20
38684;DHT22;24910;53.248;-6.134;2023-06-22T00:44:08;20.00;74.30
38684;DHT22;24910;53.248;-6.134;2023-06-22T00:46:37;20.00;74.50
38684;DHT22;24910;53.248;-6.134;2023-06-22T00:49:06;20.00;74.70
38684;DHT22;24910;53.248;-6.134;2023-06-22T00:51:37;19.90;74.60
38684;DHT22;24910;53.248;-6.134;2023-06-22T00:54:09;19.90;74.60
38684;DHT22;24910;53.248;-6.134;2023-06-22T00:56:41;19.90;74.80
38684;DHT22;24910;53.248;-6.134;2023-06-22T00:59:11;19.90;74.60
38684;DHT22;24910;53.248;-6.134;2023-06-22T01:01:41;19.80;74.60
38684;DHT22;24910;53.248;-6.134;2023-06-22T01:04:11;19.80;75.00
38684;DHT22;24910;53.248;-6.134;2023-06-22T01:06:45;19.70;75.10
38684;DHT22;24910;53.248;-6.134;2023-06-22T01:09:22;19.60;75.40
38684;DHT22;24910;53.248;-6.134;2023-06-22T01:11:58;19.60;75.60
38684;DHT22;24910;53.248;-6.134;2023-06-22T01:14:36;19.60;75.70
38684;DHT22;24910;53.248;-6.134;2023-06-22T01:17:08;19.50;75.70
38684;DHT22;24910;53.248;-6.134;2023-06-22T01:19:43;19.50;75.70
38684;DHT22;24910;53.248;-6.134;2023-06-22T01:22:17;19.50;75.90
38684;DHT22;24910;53.248;-6.134;2023-06-22T01:24:57;19.40;75.80
38684;DHT22;24910;53.248;-6.134;2023-06-22T01:27:31;19.40;75.80
38684;DHT22;24910;53.248;-6.134;2023-06-22T01:30:05;19.40;75.70
38684;DHT22;24910;53.248;-6.134;2023-06-22T01:32:38;19.40;75.50
38684;DHT22;24910;53.248;-6.134;2023-06-22T01:35:09;19.30;75.70
38684;DHT22;24910;53.248;-6.134;2023-06-22T01:37:40;19.20;75.80
38684;DHT22;24910;53.248;-6.134;2023-06-22T01:40:14;19.20;76.00
38684;DHT22;24910;53.248;-6.134;2023-06-22T01:42:44;19.20;77.00
38684;DHT22;24910;53.248;-6.134;2023-06-22T01:45:15;19.20;76.20
38684;DHT22;24910;53.248;-6.134;2023-06-22T01:47:44;19.10;76.10
38684;DHT22;24910;53.248;-6.134;2023-06-22T01:50:14;19.10;76.00
38684;DHT22;24910;53.248;-6.134;2023-06-22T01:52:43;19.10;76.00
38684;DHT22;24910;53.248;-6.134;2023-06-22T01:55:12;19.10;76.00
38684;DHT22;24910;53.248;-6.134;2023-06-22T01:57:42;19.10;76.20
38684;DHT22;24910;53.248;-6.134;2023-06-22T02:00:16;19.00;76.20
38684;DHT22;24910;53.248;-6.134;2023-06-22T02:02:53;19.00;76.20
38684;DHT22;24910;53.248;-6.134;2023-06-22T02:05:26;19.00;76.10
38684;DHT22;24910;53.248;-6.134;2023-06-22T02:08:05;19.00;76.10
38684;DHT22;24910;53.248;-6.134;2023-06-22T02:10:38;19.00;76.20
38684;DHT22;24910;53.248;-6.134;2023-06-22T02:13:10;18.90;76.30
38684;DHT22;24910;53.248;-6.134;2023-06-22T02:15:42;18.90;76.30
38684;DHT22;24910;53.248;-6.134;2023-06-22T02:18:12;18.90;76.40
38684;DHT22;24910;53.248;-6.134;2023-06-22T02:20:42;18.90;76.50
38684;DHT22;24910;53.248;-6.134;2023-06-22T02:23:11;18.90;76.60
38684;DHT22;24910;53.248;-6.134;2023-06-22T02:25:40;18.90;76.80
38684;DHT22;24910;53.248;-6.134;2023-06-22T02:28:12;18.80;76.80
38684;DHT22;24910;53.248;-6.134;2023-06-22T02:30:42;18.90;77.00
38684;DHT22;24910;53.248;-6.134;2023-06-22T02:33:11;18.80;77.00
38684;DHT22;24910;53.248;-6.134;2023-06-22T02:35:40;18.90;77.20
38684;DHT22;24910;53.248;-6.134;2023-06-22T02:38:15;18.90;77.30
38684;DHT22;24910;53.248;-6.134;2023-06-22T02:40:45;18.90;77.30
38684;DHT22;24910;53.248;-6.134;2023-06-22T02:43:14;18.90;77.50
38684;DHT22;24910;53.248;-6.134;2023-06-22T02:45:46;18.90;77.60
38684;DHT22;24910;53.248;-6.134;2023-06-22T02:48:16;18.90;77.70
38684;DHT22;24910;53.248;-6.134;2023-06-22T02:50:45;18.90;77.60
38684;DHT22;24910;53.248;-6.134;2023-06-22T02:53:14;18.90;77.60
38684;DHT22;24910;53.248;-6.134;2023-06-22T02:55:46;18.90;77.60
38684;DHT22;24910;53.248;-6.134;2023-06-22T02:58:16;18.90;77.70
38684;DHT22;24910;53.248;-6.134;2023-06-22T03:00:46;18.90;77.70
38684;DHT22;24910;53.248;-6.134;2023-06-22T03:03:15;18.80;77.90
38684;DHT22;24910;53.248;-6.134;2023-06-22T03:05:51;18.80;77.40
38684;DHT22;24910;53.248;-6.134;2023-06-22T03:08:24;18.80;77.40
38684;DHT22;24910;53.248;-6.134;2023-06-22T03:10:54;18.80;77.20
38684;DHT22;24910;53.248;-6.134;2023-06-22T03:13:23;18.80;77.00
38684;DHT22;24910;53.248;-6.134;2023-06-22T03:15:54;18.70;76.70
38684;DHT22;24910;53.248;-6.134;2023-06-22T03:18:23;18.70;76.60
38684;DHT22;24910;53.248;-6.134;2023-06-22T03:20:52;18.60;76.40
38684;DHT22;24910;53.248;-6.134;2023-06-22T03:23:22;18.60;76.30
38684;DHT22;24910;53.248;-6.134;2023-06-22T03:25:51;18.60;76.20
38684;DHT22;24910;53.248;-6.134;2023-06-22T03:28:20;18.60;76.00
38684;DHT22;24910;53.248;-6.134;2023-06-22T03:30:49;18.50;75.90
38684;DHT22;24910;53.248;-6.134;2023-06-22T03:33:19;18.50;76.70
38684;DHT22;24910;53.248;-6.134;2023-06-22T03:35:50;18.40;75.80
38684;DHT22;24910;53.248;-6.134;2023-06-22T03:38:19;18.40;75.60
38684;DHT22;24910;53.248;-6.134;2023-06-22T03:40:48;18.40;75.40
38684;DHT22;24910;53.248;-6.134;2023-06-22T03:43:17;18.40;75.30
38684;DHT22;24910;53.248;-6.134;2023-06-22T03:45:47;18.30;75.10
38684;DHT22;24910;53.248;-6.134;2023-06-22T03:48:16;18.30;74.90
38684;DHT22;24910;53.248;-6.134;2023-06-22T03:50:47;18.30;74.90
38684;DHT22;24910;53.248;-6.134;2023-06-22T03:53:16;18.30;74.80
38684;DHT22;24910;53.248;-6.134;2023-06-22T03:55:49;18.30;74.80
38684;DHT22;24910;53.248;-6.134;2023-06-22T03:58:20;18.30;74.80
38684;DHT22;24910;53.248;-6.134;2023-06-22T04:00:50;18.20;74.80
38684;DHT22;24910;53.248;-6.134;2023-06-22T04:03:20;18.20;74.90
38684;DHT22;24910;53.248;-6.134;2023-06-22T04:05:50;18.10;74.80
38684;DHT22;24910;53.248;-6.134;2023-06-22T04:08:20;18.10;74.80
38684;DHT22;24910;53.248;-6.134;2023-06-22T04:10:49;18.10;74.80
38684;DHT22;24910;53.248;-6.134;2023-06-22T04:13:18;18.10;74.90
38684;DHT22;24910;53.248;-6.134;2023-06-22T04:15:47;18.10;74.80
38684;DHT22;24910;53.248;-6.134;2023-06-22T04:18:16;18.10;74.70
38684;DHT22;24910;53.248;-6.134;2023-06-22T04:20:45;18.10;74.60
38684;DHT22;24910;53.248;-6.134;2023-06-22T04:23:16;18.00;74.60
38684;DHT22;24910;53.248;-6.134;2023-06-22T04:25:45;18.10;74.70
38684;DHT22;24910;53.248;-6.134;2023-06-22T04:28:14;18.00;74.80
38684;DHT22;24910;53.248;-6.134;2023-06-22T04:30:43;18.00;74.80
38684;DHT22;24910;53.248;-6.134;2023-06-22T04:33:14;18.00;74.90
38684;DHT22;24910;53.248;-6.134;2023-06-22T04:35:45;18.00;75.00
38684;DHT22;24910;53.248;-6.134;2023-06-22T04:38:15;18.00;74.80
38684;DHT22;24910;53.248;-6.134;2023-06-22T04:40:45;18.00;74.90
38684;DHT22;24910;53.248;-6.134;2023-06-22T04:43:14;18.00;75.00
38684;DHT22;24910;53.248;-6.134;2023-06-22T04:45:43;18.00;76.00
38684;DHT22;24910;53.248;-6.134;2023-06-22T04:48:12;18.00;75.10
38684;DHT22;24910;53.248;-6.134;2023-06-22T04:50:43;18.00;75.30
38684;DHT22;24910;53.248;-6.134;2023-06-22T04:53:13;18.10;75.30
38684;DHT22;24910;53.248;-6.134;2023-06-22T04:55:43;18.10;75.10
38684;DHT22;24910;53.248;-6.134;2023-06-22T04:58:13;18.10;75.10
38684;DHT22;24910;53.248;-6.134;2023-06-22T05:00:42;18.10;75.10
38684;DHT22;24910;53.248;-6.134;2023-06-22T05:03:12;18.20;75.40
38684;DHT22;24910;53.248;-6.134;2023-06-22T05:05:47;18.20;75.40
38684;DHT22;24910;53.248;-6.134;2023-06-22T05:08:16;18.30;75.60
38684;DHT22;24910;53.248;-6.134;2023-06-22T05:10:47;18.40;75.40
38684;DHT22;24910;53.248;-6.134;2023-06-22T05:13:32;18.60;75.30
38684;DHT22;24910;53.248;-6.134;2023-06-22T05:16:01;18.80;75.00
38684;DHT22;24910;53.248;-6.134;2023-06-22T05:18:31;19.00;74.80
38684;DHT22;24910;53.248;-6.134;2023-06-22T05:21:00;19.20;74.70
38684;DHT22;24910;53.248;-6.134;2023-06-22T05:23:30;19.30;74.30
38684;DHT22;24910;53.248;-6.134;2023-06-22T05:26:01;19.50;74.30
38684;DHT22;24910;53.248;-6.134;2023-06-22T05:28:30;19.60;74.10
38684;DHT22;24910;53.248;-6.134;2023-06-22T05:30:59;19.80;74.00
38684;DHT22;24910;53.248;-6.134;2023-06-22T05:33:28;20.00;73.80
38684;DHT22;24910;53.248;-6.134;2023-06-22T05:35:58;20.10;73.30
38684;DHT22;24910;53.248;-6.134;2023-06-22T05:38:27;20.20;72.90
38684;DHT22;24910;53.248;-6.134;2023-06-22T05:40:56;20.30;72.70
38684;DHT22;24910;53.248;-6.134;2023-06-22T05:43:27;20.40;72.60
38684;DHT22;24910;53.248;-6.134;2023-06-22T05:45:56;20.50;72.40
38684;DHT22;24910;53.248;-6.134;2023-06-22T05:48:25;20.70;72.30
38684;DHT22;24910;53.248;-6.134;2023-06-22T05:50:55;20.80;71.90
38684;DHT22;24910;53.248;-6.134;2023-06-22T05:53:24;21.00;71.50
38684;DHT22;24910;53.248;-6.134;2023-06-22T05:55:54;21.10;71.10
38684;DHT22;24910;53.248;-6.134;2023-06-22T05:58:29;21.30;71.00
38684;DHT22;24910;53.248;-6.134;2023-06-22T06:01:00;21.30;70.80
38684;DHT22;24910;53.248;-6.134;2023-06-22T06:03:30;21.40;70.80
38684;DHT22;24910;53.248;-6.134;2023-06-22T06:06:00;21.40;70.80
38684;DHT22;24910;53.248;-6.134;2023-06-22T06:08:30;21.40;71.00
38684;DHT22;24910;53.248;-6.134;2023-06-22T06:11:01;21.40;71.00
38684;DHT22;24910;53.248;-6.134;2023-06-22T06:13:48;21.50;71.30
38684;DHT22;24910;53.248;-6.134;2023-06-22T06:16:18;21.60;71.40
38684;DHT22;24910;53.248;-6.134;2023-06-22T06:19:08;21.60;71.60
38684;DHT22;24910;53.248;-6.134;2023-06-22T06:21:43;21.70;71.60
38684;DHT22;24910;53.248;-6.134;2023-06-22T06:24:16;21.80;71.80
38684;DHT22;24910;53.248;-6.134;2023-06-22T06:26:45;21.90;71.90
38684;DHT22;24910;53.248;-6.134;2023-06-22T06:29:18;22.00;72.10
38684;DHT22;24910;53.248;-6.134;2023-06-22T06:31:51;22.10;72.40
38684;DHT22;24910;53.248;-6.134;2023-06-22T06:34:22;22.10;72.30
38684;DHT22;24910;53.248;-6.134;2023-06-22T06:36:53;22.20;72.40
38684;DHT22;24910;53.248;-6.134;2023-06-22T06:39:28;22.30;72.10
38684;DHT22;24910;53.248;-6.134;2023-06-22T06:41:59;22.40;72.20
38684;DHT22;24910;53.248;-6.134;2023-06-22T06:44:32;22.40;72.20
38684;DHT22;24910;53.248;-6.134;2023-06-22T06:47:01;22.40;72.20
38684;DHT22;24910;53.248;-6.134;2023-06-22T06:49:30;22.40;72.00
38684;DHT22;24910;53.248;-6.134;2023-06-22T06:51:59;22.50;72.00
38684;DHT22;24910;53.248;-6.134;2023-06-22T06:54:28;22.60;72.10
38684;DHT22;24910;53.248;-6.134;2023-06-22T06:56:57;22.70;72.00
38684;DHT22;24910;53.248;-6.134;2023-06-22T06:59:27;22.80;71.90
38684;DHT22;24910;53.248;-6.134;2023-06-22T07:01:58;22.90;71.80
38684;DHT22;24910;53.248;-6.134;2023-06-22T07:04:27;23.00;71.80
38684;DHT22;24910;53.248;-6.134;2023-06-22T07:06:56;23.10;71.70
38684;DHT22;24910;53.248;-6.134;2023-06-22T07:09:25;23.20;71.50
38684;DHT22;24910;53.248;-6.134;2023-06-22T07:11:54;23.20;71.20
38684;DHT22;24910;53.248;-6.134;2023-06-22T07:14:24;23.30;70.70
38684;DHT22;24910;53.248;-6.134;2023-06-22T07:16:53;23.30;70.50
38684;DHT22;24910;53.248;-6.134;2023-06-22T07:19:26;23.30;70.40
38684;DHT22;24910;53.248;-6.134;2023-06-22T07:21:55;23.40;70.30
38684;DHT22;24910;53.248;-6.134;2023-06-22T07:24:25;23.50;70.20
38684;DHT22;24910;53.248;-6.134;2023-06-22T07:26:54;23.50;69.70
38684;DHT22;24910;53.248;-6.134;2023-06-22T07:29:26;23.50;69.50
38684;DHT22;24910;53.248;-6.134;2023-06-22T07:31:56;23.40;69.50
38684;DHT22;24910;53.248;-6.134;2023-06-22T07:34:26;23.40;69.30
38684;DHT22;24910;53.248;-6.134;2023-06-22T07:36:55;23.40;69.20
38684;DHT22;24910;53.248;-6.134;2023-06-22T07:39:24;23.30;69.20
38684;DHT22;24910;53.248;-6.134;2023-06-22T07:41:54;23.30;69.30
38684;DHT22;24910;53.248;-6.134;2023-06-22T07:44:23;23.30;69.30
38684;DHT22;24910;53.248;-6.134;2023-06-22T07:46:53;23.30;69.20
38684;DHT22;24910;53.248;-6.134;2023-06-22T07:49:22;23.40;69.00
38684;DHT22;24910;53.248;-6.134;2023-06-22T07:51:52;23.40;68.80
38684;DHT22;24910;53.248;-6.134;2023-06-22T07:54:22;23.50;68.80
38684;DHT22;24910;53.248;-6.134;2023-06-22T07:56:51;23.40;68.30
38684;DHT22;24910;53.248;-6.134;2023-06-22T07:59:20;23.40;67.80
38684;DHT22;24910;53.248;-6.134;2023-06-22T08:01:49;23.40;68.20
38684;DHT22;24910;53.248;-6.134;2023-06-22T08:04:19;23.40;68.10
38684;DHT22;24910;53.248;-6.134;2023-06-22T08:06:48;23.40;67.90
38684;DHT22;24910;53.248;-6.134;2023-06-22T08:09:18;23.50;67.10
38684;DHT22;24910;53.248;-6.134;2023-06-22T08:11:48;23.50;66.00
38684;DHT22;24910;53.248;-6.134;2023-06-22T08:14:17;23.50;65.70
38684;DHT22;24910;53.248;-6.134;2023-06-22T08:16:49;23.40;65.80
38684;DHT22;24910;53.248;-6.134;2023-06-22T08:19:18;23.40;66.10
38684;DHT22;24910;53.248;-6.134;2023-06-22T08:21:47;23.30;66.30
38684;DHT22;24910;53.248;-6.134;2023-06-22T08:24:18;23.20;66.60
38684;DHT22;24910;53.248;-6.134;2023-06-22T08:26:47;23.20;66.80
38684;DHT22;24910;53.248;-6.134;2023-06-22T08:29:19;23.30;66.90
38684;DHT22;24910;53.248;-6.134;2023-06-22T08:31:49;23.20;66.80
38684;DHT22;24910;53.248;-6.134;2023-06-22T08:34:18;23.20;66.80
38684;DHT22;24910;53.248;-6.134;2023-06-22T08:36:51;23.30;66.90
38684;DHT22;24910;53.248;-6.134;2023-06-22T08:39:22;23.30;66.50
38684;DHT22;24910;53.248;-6.134;2023-06-22T08:41:51;23.40;66.30
38684;DHT22;24910;53.248;-6.134;2023-06-22T08:44:21;23.40;66.30
38684;DHT22;24910;53.248;-6.134;2023-06-22T08:46:50;23.40;66.40
38684;DHT22;24910;53.248;-6.134;2023-06-22T08:49:20;23.40;66.50
38684;DHT22;24910;53.248;-6.134;2023-06-22T08:51:50;23.30;66.30
38684;DHT22;24910;53.248;-6.134;2023-06-22T08:54:22;23.30;66.30
38684;DHT22;24910;53.248;-6.134;2023-06-22T08:56:52;23.20;66.50
38684;DHT22;24910;53.248;-6.134;2023-06-22T08:59:21;23.20;66.50
38684;DHT22;24910;53.248;-6.134;2023-06-22T09:01:51;23.10;66.70
38684;DHT22;24910;53.248;-6.134;2023-06-22T09:04:20;23.10;66.80
38684;DHT22;24910;53.248;-6.134;2023-06-22T09:06:55;23.30;66.60
38684;DHT22;24910;53.248;-6.134;2023-06-22T09:09:26;23.30;66.20
38684;DHT22;24910;53.248;-6.134;2023-06-22T09:11:55;23.40;66.10
38684;DHT22;24910;53.248;-6.134;2023-06-22T09:14:24;23.50;66.00
38684;DHT22;24910;53.248;-6.134;2023-06-22T09:16:53;23.60;66.00
38684;DHT22;24910;53.248;-6.134;2023-06-22T09:19:23;23.60;65.20
38684;DHT22;24910;53.248;-6.134;2023-06-22T09:21:52;23.50;65.00
38684;DHT22;24910;53.248;-6.134;2023-06-22T09:24:21;23.40;64.90
38684;DHT22;24910;53.248;-6.134;2023-06-22T09:26:52;23.40;64.80
38684;DHT22;24910;53.248;-6.134;2023-06-22T09:29:21;23.50;64.90
38684;DHT22;24910;53.248;-6.134;2023-06-22T09:31:50;23.60;64.80
38684;DHT22;24910;53.248;-6.134;2023-06-22T09:34:22;23.60;64.10
38684;DHT22;24910;53.248;-6.134;2023-06-22T09:36:51;23.60;63.20
38684;DHT22;24910;53.248;-6.134;2023-06-22T09:39:20;23.60;62.80
38684;DHT22;24910;53.248;-6.134;2023-06-22T09:41:51;23.50;62.80
38684;DHT22;24910;53.248;-6.134;2023-06-22T09:44:20;23.50;63.30
38684;DHT22;24910;53.248;-6.134;2023-06-22T09:46:57;23.60;63.40
38684;DHT22;24910;53.248;-6.134;2023-06-22T09:49:27;23.70;63.10
38684;DHT22;24910;53.248;-6.134;2023-06-22T09:52:15;23.70;62.70
38684;DHT22;24910;53.248;-6.134;2023-06-22T09:54:45;23.70;62.80
38684;DHT22;24910;53.248;-6.134;2023-06-22T09:57:15;23.80;62.90
38684;DHT22;24910;53.248;-6.134;2023-06-22T09:59:44;23.80;62.80
38684;DHT22;24910;53.248;-6.134;2023-06-22T10:02:17;23.80;63.30
38684;DHT22;24910;53.248;-6.134;2023-06-22T10:04:46;23.80;63.20
38684;DHT22;24910;53.248;-6.134;2023-06-22T10:07:16;23.70;63.30
38684;DHT22;24910;53.248;-6.134;2023-06-22T10:09:56;23.60;63.90
38684;DHT22;24910;53.248;-6.134;2023-06-22T10:12:27;23.50;64.20
38684;DHT22;24910;53.248;-6.134;2023-06-22T10:14:56;23.40;64.10
38684;DHT22;24910;53.248;-6.134;2023-06-22T10:17:31;23.30;64.00
38684;DHT22;24910;53.248;-6.134;2023-06-22T10:20:00;23.10;63.90
38684;DHT22;24910;53.248;-6.134;2023-06-22T10:22:40;23.10;64.60
38684;DHT22;24910;53.248;-6.134;2023-06-22T10:25:10;23.10;65.00
38684;DHT22;24910;53.248;-6.134;2023-06-22T10:27:43;23.10;65.40
38684;DHT22;24910;53.248;-6.134;2023-06-22T10:30:21;23.10;65.70
38684;DHT22;24910;53.248;-6.134;2023-06-22T10:32:51;23.10;65.60
38684;DHT22;24910;53.248;-6.134;2023-06-22T10:35:20;23.00;65.60
38684;DHT22;24910;53.248;-6.134;2023-06-22T10:37:49;22.90;65.80
38684;DHT22;24910;53.248;-6.134;2023-06-22T10:40:19;22.80;66.30
38684;DHT22;24910;53.248;-6.134;2023-06-22T10:42:50;22.80;67.00
38684;DHT22;24910;53.248;-6.134;2023-06-22T10:45:19;22.60;67.60
38684;DHT22;24910;53.248;-6.134;2023-06-22T10:47:49;22.50;68.20
38684;DHT22;24910;53.248;-6.134;2023-06-22T10:50:18;22.50;68.70
38684;DHT22;24910;53.248;-6.134;2023-06-22T10:52:48;22.70;69.20
38684;DHT22;24910;53.248;-6.134;2023-06-22T10:55:19;22.80;69.10
38684;DHT22;24910;53.248;-6.134;2023-06-22T10:57:50;22.80;69.20
38684;DHT22;24910;53.248;-6.134;2023-06-22T11:00:20;22.80;69.60
38684;DHT22;24910;53.248;-6.134;2023-06-22T11:02:49;22.80;69.60
38684;DHT22;24910;53.248;-6.134;2023-06-22T11:05:19;22.80;69.80
38684;DHT22;24910;53.248;-6.134;2023-06-22T11:07:49;22.80;70.00
38684;DHT22;24910;53.248;-6.134;2023-06-22T11:10:19;22.90;70.10
38684;DHT22;24910;53.248;-6.134;2023-06-22T11:12:49;23.00;69.90
38684;DHT22;24910;53.248;-6.134;2023-06-22T11:15:21;23.00;69.50
38684;DHT22;24910;53.248;-6.134;2023-06-22T11:17:53;23.10;69.30
38684;DHT22;24910;53.248;-6.134;2023-06-22T11:20:26;23.10;69.10
38684;DHT22;24910;53.248;-6.134;2023-06-22T11:22:57;23.10;69.20
38684;DHT22;24910;53.248;-6.134;2023-06-22T11:25:28;23.10;70.00
38684;DHT22;24910;53.248;-6.134;2023-06-22T11:28:01;23.10;69.10
38684;DHT22;24910;53.248;-6.134;2023-06-22T11:30:57;23.00;68.90
38684;DHT22;24910;53.248;-6.134;2023-06-22T11:33:31;23.00;69.10
38684;DHT22;24910;53.248;-6.134;2023-06-22T11:36:21;23.00;68.90
38684;DHT22;24910;53.248;-6.134;2023-06-22T11:38:53;23.10;68.90
38684;DHT22;24910;53.248;-6.134;2023-06-22T11:41:23;23.10;68.90
38684;DHT22;24910;53.248;-6.134;2023-06-22T11:43:52;23.10;69.00
38684;DHT22;24910;53.248;-6.134;2023-06-22T11:46:36;23.00;68.80
38684;DHT22;24910;53.248;-6.134;2023-06-22T11:49:06;23.00;68.80
38684;DHT22;24910;53.248;-6.134;2023-06-22T11:51:41;22.90;68.60
38684;DHT22;24910;53.248;-6.134;2023-06-22T11:54:10;22.70;68.50
38684;DHT22;24910;53.248;-6.134;2023-06-22T11:56:44;22.70;68.80
38684;DHT22;24910;53.248;-6.134;2023-06-22T11:59:25;22.70;68.90
38684;DHT22;24910;53.248;-6.134;2023-06-22T12:02:49;22.80;69.10
38684;DHT22;24910;53.248;-6.134;2023-06-22T12:05:44;22.70;69.00
38684;DHT22;24910;53.248;-6.134;2023-06-22T12:08:42;22.70;69.00
38684;DHT22;24910;53.248;-6.134;2023-06-22T12:11:16;22.70;69.10
38684;DHT22;24910;53.248;-6.134;2023-06-22T12:13:49;22.70;69.10
38684;DHT22;24910;53.248;-6.134;2023-06-22T12:16:33;22.70;69.30
38684;DHT22;24910;53.248;-6.134;2023-06-22T12:19:31;22.60;69.00
38684;DHT22;24910;53.248;-6.134;2023-06-22T12:22:02;22.50;69.20
38684;DHT22;24910;53.248;-6.134;2023-06-22T12:24:54;22.40;69.30
38684;DHT22;24910;53.248;-6.134;2023-06-22T12:27:30;22.20;69.30
38684;DHT22;24910;53.248;-6.134;2023-06-22T12:30:28;22.10;69.40
38684;DHT22;24910;53.248;-6.134;2023-06-22T12:33:11;22.00;70.00
38684;DHT22;24910;53.248;-6.134;2023-06-22T12:35:46;22.10;70.00
38684;DHT22;24910;53.248;-6.134;2023-06-22T12:38:21;22.00;70.00
38684;DHT22;24910;53.248;-6.134;2023-06-22T12:41:18;21.90;70.20
38684;DHT22;24910;53.248;-6.134;2023-06-22T12:43:49;21.80;70.30
38684;DHT22;24910;53.248;-6.134;2023-06-22T12:46:29;21.80;70.40
38684;DHT22;24910;53.248;-6.134;2023-06-22T12:49:55;21.80;70.40
38684;DHT22;24910;53.248;-6.134;2023-06-22T12:52:41;21.80;70.50
38684;DHT22;24910;53.248;-6.134;2023-06-22T12:55:39;22.00;70.30
38684;DHT22;24910;53.248;-6.134;2023-06-22T12:58:46;22.00;70.20
38684;DHT22;24910;53.248;-6.134;2023-06-22T13:01:56;21.80;70.20
38684;DHT22;24910;53.248;-6.134;2023-06-22T13:04:31;21.70;70.60
38684;DHT22;24910;53.248;-6.134;2023-06-22T13:07:46;21.50;70.70
38684;DHT22;24910;53.248;-6.134;2023-06-22T13:10:37;21.40;71.00
38684;DHT22;24910;53.248;-6.134;2023-06-22T13:13:19;21.30;71.40
38684;DHT22;24910;53.248;-6.134;2023-06-22T13:15:59;21.20;71.80
38684;DHT22;24910;53.248;-6.134;2023-06-22T13:18:42;21.10;72.10
38684;DHT22;24910;53.248;-6.134;2023-06-22T13:21:38;21.10;72.60
38684;DHT22;24910;53.248;-6.134;2023-06-22T13:24:08;21.00;72.90
38684;DHT22;24910;53.248;-6.134;2023-06-22T13:26:37;20.90;72.90
38684;DHT22;24910;53.248;-6.134;2023-06-22T13:29:20;20.80;73.40
38684;DHT22;24910;53.248;-6.134;2023-06-22T13:31:57;20.70;73.60
38684;DHT22;24910;53.248;-6.134;2023-06-22T13:34:30;20.80;73.70
38684;DHT22;24910;53.248;-6.134;2023-06-22T13:37:05;20.70;73.70
38684;DHT22;24910;53.248;-6.134;2023-06-22T13:39:39;20.70;73.90
38684;DHT22;24910;53.248;-6.134;2023-06-22T13:42:21;20.70;74.00
38684;DHT22;24910;53.248;-6.134;2023-06-22T13:44:58;20.80;74.10
38684;DHT22;24910;53.248;-6.134;2023-06-22T13:47:54;20.80;74.20
38684;DHT22;24910;53.248;-6.134;2023-06-22T13:50:59;20.70;74.20
38684;DHT22;24910;53.248;-6.134;2023-06-22T13:53:30;20.70;74.00
38684;DHT22;24910;53.248;-6.134;2023-06-22T13:56:20;20.80;74.10
38684;DHT22;24910;53.248;-6.134;2023-06-22T13:59:06;20.80;74.30
38684;DHT22;24910;53.248;-6.134;2023-06-22T14:01:42;20.80;74.30
38684;DHT22;24910;53.248;-6.134;2023-06-22T14:04:39;20.70;74.60
38684;DHT22;24910;53.248;-6.134;2023-06-22T14:07:19;20.70;75.10
38684;DHT22;24910;53.248;-6.134;2023-06-22T14:10:10;20.80;75.00
38684;DHT22;24910;53.248;-6.134;2023-06-22T14:12:49;20.90;75.00
38684;DHT22;24910;53.248;-6.134;2023-06-22T14:15:23;21.00;74.90
38684;DHT22;24910;53.248;-6.134;2023-06-22T14:17:56;21.10;74.80
38684;DHT22;24910;53.248;-6.134;2023-06-22T14:20:28;21.20;74.60
38684;DHT22;24910;53.248;-6.134;2023-06-22T14:22:57;21.20;74.40
38684;DHT22;24910;53.248;-6.134;2023-06-22T14:25:26;21.20;74.30
38684;DHT22;24910;53.248;-6.134;2023-06-22T14:27:55;21.20;74.20
38684;DHT22;24910;53.248;-6.134;2023-06-22T14:30:24;21.00;74.20
38684;DHT22;24910;53.248;-6.134;2023-06-22T14:32:55;20.90;74.40
38684;DHT22;24910;53.248;-6.134;2023-06-22T14:35:25;20.80;74.60
38684;DHT22;24910;53.248;-6.134;2023-06-22T14:37:54;20.80;74.90
38684;DHT22;24910;53.248;-6.134;2023-06-22T14:40:23;20.70;75.00
38684;DHT22;24910;53.248;-6.134;2023-06-22T14:42:53;20.60;75.10
38684;DHT22;24910;53.248;-6.134;2023-06-22T14:45:24;20.50;75.00
38684;DHT22;24910;53.248;-6.134;2023-06-22T14:47:53;20.40;75.00
38684;DHT22;24910;53.248;-6.134;2023-06-22T14:50:24;20.40;75.00
38684;DHT22;24910;53.248;-6.134;2023-06-22T14:52:53;20.30;75.10
38684;DHT22;24910;53.248;-6.134;2023-06-22T14:55:22;20.30;75.20
38684;DHT22;24910;53.248;-6.134;2023-06-22T14:57:51;20.30;75.30
38684;DHT22;24910;53.248;-6.134;2023-06-22T15:00:21;20.30;75.50
38684;DHT22;24910;53.248;-6.134;2023-06-22T15:02:50;20.30;75.70
38684;DHT22;24910;53.248;-6.134;2023-06-22T15:05:19;20.40;75.80
38684;DHT22;24910;53.248;-6.134;2023-06-22T15:07:50;20.40;75.80
38684;DHT22;24910;53.248;-6.134;2023-06-22T15:10:19;20.50;75.80
38684;DHT22;24910;53.248;-6.134;2023-06-22T15:12:48;20.50;75.80
38684;DHT22;24910;53.248;-6.134;2023-06-22T15:15:17;20.50;75.90
38684;DHT22;24910;53.248;-6.134;2023-06-22T15:17:46;20.60;75.90
38684;DHT22;24910;53.248;-6.134;2023-06-22T15:20:15;20.70;75.90
38684;DHT22;24910;53.248;-6.134;2023-06-22T15:22:45;20.70;75.70
38684;DHT22;24910;53.248;-6.134;2023-06-22T15:25:15;20.50;75.60
38684;DHT22;24910;53.248;-6.134;2023-06-22T15:27:44;20.40;75.70
38684;DHT22;24910;53.248;-6.134;2023-06-22T15:30:14;20.40;75.90
38684;DHT22;24910;53.248;-6.134;2023-06-22T15:32:46;20.30;76.10
38684;DHT22;24910;53.248;-6.134;2023-06-22T15:35:17;20.30;76.20
38684;DHT22;24910;53.248;-6.134;2023-06-22T15:37:46;20.20;76.40
38684;DHT22;24910;53.248;-6.134;2023-06-22T15:40:17;20.20;76.60
38684;DHT22;24910;53.248;-6.134;2023-06-22T15:42:49;20.30;76.60
38684;DHT22;24910;53.248;-6.134;2023-06-22T15:45:20;20.30;76.40
38684;DHT22;24910;53.248;-6.134;2023-06-22T15:47:50;20.20;76.40
38684;DHT22;24910;53.248;-6.134;2023-06-22T15:50:19;20.10;76.40